Key West, FL

5:25 AM EDT on August 30, 2016 (GMT -0400)
Key West International | | Change Station

Elev 0 ft 24.56 °N, 81.75 °W | Updated 2 minutes ago

Light Rain
Light Rain
79 °F
Feels Like 79 °F
N
13
Wind Variable Wind from South
Gusts 24 mph

Today
High -- | Low -- °F
--% Chance of Precip.
Yesterday
High -- | Low -- °F
Precip. -- in
Pressure 29.85 in
Visibility 5.0 miles
Clouds Few 2300 ft
Mostly Cloudy 3700 ft
Overcast 10000 ft
Dew Point 74 °F
Humidity 84%
Rainfall 0.00 in
Snow Depth Not available.
7:07 AM 7:46 PM
Waning Crescent, 4% visible
SPECI KEYW 300923Z AUTO 19011G21KT 5SM -RA FEW023 BKN037 OVC100 26/23 A2985 RMK AO2 PK WND 17029/0858 RAB02 P0012 T02610233 $
Pressure 29.85 in
Visibility 5.0 miles
Clouds Few 2300 ft
Mostly Cloudy 3700 ft
Overcast 10000 ft
Dew Point 74 °F
Humidity 84%
Rainfall 0.00 in
Snow Depth Not available.
7:07 AM 7:46 PM
Waning Crescent, 4% visible
SPECI KEYW 300923Z AUTO 19011G21KT 5SM -RA FEW023 BKN037 OVC100 26/23 A2985 RMK AO2 PK WND 17029/0858 RAB02 P0012 T02610233 $

10-Day Weather Forecast

Almanac

Astronomy

Aug. 30, 2016 Rise Set
Actual Time
Civil Twilight
Nautical Twilight
Astronomical Twilight
Moon
Length of Visible Light
Length of Day
Tomorrow will be .
, % of the Moon is Illuminated

Today's Extremes

State Highs State Lows

Community

WunderPhotos

Upload Photos

1,935,795 photos uploaded!

WunderBlog® & News

Nearby

Air Quality

  Air Quality AQ Index Pollutant
Not available.

Snow Depth

Station Depth Elevation

Earthquake Activity

City Distance Mag. Time & Date
Minimum magnitude displayed is 2.5.

Coastal Water Temperatures

Place Temperature

Stations

Nearby Weather Stations

Station Location Temp. Windchill Dew Point Humidity Wind Precip. Elev Updated Type
                   

Watches & Warnings

There are currently no watches in effect.